Time;durP1;ratioP1;P1;durP2;ratioP2;P2;SDS_P1;SDS_P2;PMS_P1;PMS_P2;Temp;Humidity;BMP_temperature;BMP_pressure;BME280_temperature;BME280_humidity;BME280_pressure;Samples;Min_cycle;Max_cycle;Signal;HPM_P1;HPM_P2
2021/12/16 00:09:35;;;;;;;46.67;21.63;;;8.10;99.90;;;;;;5115427;28;20195;-76
2021/12/16 00:31:23;;;;;;;50.80;21.00;;;8.20;99.90;;;;;;5115420;28;20183;-77
2021/12/16 00:34:00;;;;;;;41.60;19.83;;;8.30;99.90;;;;;;5115107;28;20179;-76
2021/12/16 00:36:31;;;;;;;43.90;19.30;;;8.20;99.90;;;;;;5115419;28;20219;-77
2021/12/16 00:38:59;;;;;;;45.67;22.70;;;8.30;99.90;;;;;;5114918;28;20627;-78
2021/12/16 00:41:27;;;;;;;45.10;21.43;;;8.20;99.90;;;;;;5115100;28;20264;-77
2021/12/16 00:44:00;;;;;;;45.57;21.80;;;8.30;99.90;;;;;;5115092;28;20684;-76
2021/12/16 00:46:55;;;;;;;42.07;19.90;;;8.30;99.90;;;;;;5114844;28;20187;-77
2021/12/16 00:49:32;;;;;;;47.60;21.77;;;8.30;99.90;;;;;;5114156;28;20575;-77
2021/12/16 00:54:54;;;;;;;54.67;22.63;;;8.40;99.90;;;;;;5115028;28;20179;-76
2021/12/16 00:57:21;;;;;;;48.23;20.97;;;8.30;99.90;;;;;;5114701;28;20271;-77
2021/12/16 00:59:50;;;;;;;48.83;21.83;;;8.30;99.90;;;;;;5115173;28;20191;-77
2021/12/16 01:02:33;;;;;;;47.30;20.93;;;8.30;99.90;;;;;;5114945;28;20195;-77
2021/12/16 01:05:20;;;;;;;46.30;20.90;;;8.30;99.90;;;;;;5104964;28;20192;-77
2021/12/16 01:35:18;;;;;;;52.30;21.40;;;8.30;99.90;;;;;;5113961;28;20225;-76
2021/12/16 01:46:25;;;;;;;42.57;19.57;;;8.20;99.90;;;;;;5113805;28;20178;-76
2021/12/16 01:52:01;;;;;;;39.20;19.00;;;8.30;99.90;;;;;;5113769;28;20171;-77
2021/12/16 01:54:46;;;;;;;45.80;20.27;;;8.30;99.90;;;;;;5113854;28;20186;-77
2021/12/16 01:57:23;;;;;;;43.53;21.43;;;8.20;99.90;;;;;;5112564;28;20186;-76
2021/12/16 01:59:58;;;;;;;42.93;19.40;;;8.20;99.90;;;;;;5113621;28;20228;-77
2021/12/16 02:02:37;;;;;;;43.07;18.63;;;8.20;99.90;;;;;;5113643;28;20181;-77
2021/12/16 02:11:03;;;;;;;40.20;18.17;;;8.30;99.90;;;;;;5111099;27;20528;-76
2021/12/16 02:27:33;;;;;;;48.77;20.00;;;8.30;99.90;;;;;;5110000;28;20185;-75
2021/12/16 02:31:04;;;;;;;40.97;19.20;;;8.20;99.90;;;;;;5110100;28;20235;-75
2021/12/16 02:36:12;;;;;;;38.33;16.13;;;8.30;99.90;;;;;;5109803;28;20183;-76
2021/12/16 02:38:43;;;;;;;38.20;16.40;;;8.20;99.90;;;;;;5109607;28;20519;-76
2021/12/16 02:41:11;;;;;;;31.07;13.20;;;8.30;99.90;;;;;;5109594;28;20265;-76
2021/12/16 02:49:06;;;;;;;36.83;17.33;;;8.30;99.90;;;;;;5109505;28;20205;-75
2021/12/16 02:51:33;;;;;;;34.60;16.33;;;8.30;99.90;;;;;;5109741;28;20198;-76
2021/12/16 02:54:05;;;;;;;38.07;17.03;;;8.30;99.90;;;;;;5109056;28;20191;-76
2021/12/16 02:56:33;;;;;;;35.50;16.50;;;8.30;99.90;;;;;;5109102;28;20184;-76
2021/12/16 02:59:00;;;;;;;37.63;17.10;;;8.30;99.90;;;;;;5109148;28;20195;-76
2021/12/16 03:01:31;;;;;;;40.90;16.77;;;8.30;99.90;;;;;;5109085;28;20643;-75
2021/12/16 03:04:00;;;;;;;38.00;16.47;;;8.30;99.90;;;;;;5109668;28;20290;-76
2021/12/16 03:06:30;;;;;;;40.87;18.03;;;8.30;99.90;;;;;;5109139;28;20603;-76
2021/12/16 03:08:58;;;;;;;41.60;19.00;;;8.30;99.90;;;;;;5108891;28;20258;-75
2021/12/16 03:11:37;;;;;;;42.27;17.77;;;8.30;99.90;;;;;;5109443;28;20188;-76
2021/12/16 03:14:24;;;;;;;43.90;17.67;;;8.30;99.90;;;;;;5109334;28;20618;-75
2021/12/16 03:17:06;;;;;;;31.30;13.67;;;8.30;99.90;;;;;;5108600;28;20179;-76
2021/12/16 03:19:45;;;;;;;36.83;17.30;;;8.30;99.90;;;;;;5109219;28;20194;-76
2021/12/16 03:22:25;;;;;;;40.17;18.23;;;8.40;99.90;;;;;;5094805;28;20276;-77
2021/12/16 03:25:05;;;;;;;40.60;17.50;;;8.30;99.90;;;;;;5095641;28;20195;-76
2021/12/16 03:27:58;;;;;;;43.00;18.97;;;8.30;99.90;;;;;;5095415;28;20188;-76
2021/12/16 03:33:47;;;;;;;46.43;19.60;;;8.30;99.90;;;;;;5032918;28;20277;-75
2021/12/16 03:36:26;;;;;;;42.97;18.43;;;8.30;99.90;;;;;;5032779;28;20189;-76
2021/12/16 03:38:57;;;;;;;44.67;19.27;;;8.30;99.90;;;;;;5075200;28;20195;-76
2021/12/16 03:41:25;;;;;;;43.40;18.10;;;8.30;99.90;;;;;;5095462;28;20525;-75
2021/12/16 03:43:57;;;;;;;42.27;18.90;;;8.40;99.90;;;;;;5094779;28;20217;-76
2021/12/16 03:46:27;;;;;;;47.13;20.77;;;8.30;99.90;;;;;;5094990;28;20194;-76
2021/12/16 03:48:59;;;;;;;42.30;18.03;;;8.40;99.90;;;;;;5095167;28;20200;-76
2021/12/16 03:51:30;;;;;;;41.30;18.27;;;8.40;99.90;;;;;;5095340;28;20237;-76
2021/12/16 03:54:00;;;;;;;41.47;18.83;;;8.40;99.90;;;;;;5095334;28;20187;-76
2021/12/16 03:56:28;;;;;;;42.30;18.90;;;8.40;99.90;;;;;;5094890;28;20670;-75
2021/12/16 03:58:56;;;;;;;44.70;19.03;;;8.40;99.90;;;;;;5095040;28;20191;-76
2021/12/16 04:01:26;;;;;;;35.37;16.17;;;8.40;99.90;;;;;;5094460;28;20217;-77
2021/12/16 04:03:53;;;;;;;37.30;18.83;;;8.40;99.90;;;;;;5094429;28;20536;-77
2021/12/16 04:06:22;;;;;;;36.43;15.50;;;8.40;99.90;;;;;;5094323;28;20245;-76
2021/12/16 04:08:49;;;;;;;42.07;15.30;;;8.40;99.90;;;;;;5094134;28;20691;-76
2021/12/16 04:11:22;;;;;;;34.83;15.53;;;8.40;99.90;;;;;;5094692;28;20222;-76
2021/12/16 04:13:56;;;;;;;35.40;15.23;;;8.40;99.90;;;;;;5094718;28;20262;-76
2021/12/16 04:16:29;;;;;;;43.20;18.50;;;8.40;99.90;;;;;;5093940;28;20175;-76
2021/12/16 04:18:58;;;;;;;42.00;18.37;;;8.40;99.90;;;;;;5094420;28;20664;-77
2021/12/16 04:21:27;;;;;;;46.57;19.37;;;8.40;99.90;;;;;;5094335;28;20241;-76
2021/12/16 04:23:55;;;;;;;39.87;15.93;;;8.40;99.90;;;;;;5093718;28;20629;-76
2021/12/16 04:26:23;;;;;;;39.07;15.67;;;8.40;99.90;;;;;;5094105;28;20188;-76
2021/12/16 04:28:51;;;;;;;42.23;17.43;;;8.40;99.90;;;;;;5093924;28;20534;-76
2021/12/16 04:31:18;;;;;;;43.33;17.57;;;8.40;99.90;;;;;;5093794;28;20694;-76
2021/12/16 04:33:49;;;;;;;43.07;16.93;;;8.40;99.90;;;;;;5092543;28;20608;-76
2021/12/16 04:36:17;;;;;;;52.00;20.97;;;8.40;99.90;;;;;;5093855;28;20226;-76
2021/12/16 04:38:46;;;;;;;43.57;17.23;;;8.40;99.90;;;;;;5093284;28;20204;-77
2021/12/16 04:41:15;;;;;;;45.90;18.47;;;8.40;99.90;;;;;;5093673;28;20196;-75
2021/12/16 04:43:47;;;;;;;49.03;20.10;;;8.40;99.90;;;;;;5093540;28;20658;-76
2021/12/16 04:46:17;;;;;;;45.93;16.97;;;8.40;99.90;;;;;;5093756;28;20179;-77
2021/12/16 04:48:48;;;;;;;37.97;16.80;;;8.40;99.90;;;;;;5093976;28;20187;-75
2021/12/16 04:51:16;;;;;;;39.97;16.50;;;8.40;99.90;;;;;;5093482;28;20260;-75
2021/12/16 04:53:43;;;;;;;42.70;17.47;;;8.40;99.90;;;;;;5093411;28;20188;-76
2021/12/16 04:56:13;;;;;;;44.20;17.27;;;8.40;99.90;;;;;;5093486;28;20652;-75
2021/12/16 04:58:41;;;;;;;38.23;16.00;;;8.40;99.90;;;;;;5093287;28;20568;-77
2021/12/16 05:01:08;;;;;;;39.33;16.77;;;8.40;99.90;;;;;;5093643;28;20200;-75
2021/12/16 05:03:36;;;;;;;41.13;17.33;;;8.40;99.90;;;;;;5093276;28;20657;-75
2021/12/16 05:06:05;;;;;;;51.23;20.47;;;8.40;99.90;;;;;;5093784;28;20245;-76
2021/12/16 05:08:33;;;;;;;43.43;18.43;;;8.40;99.90;;;;;;5093135;28;20195;-75
2021/12/16 05:11:03;;;;;;;48.93;20.40;;;8.40;99.90;;;;;;5093648;28;20204;-76
2021/12/16 05:13:31;;;;;;;51.10;20.70;;;8.40;99.90;;;;;;5093630;28;20285;-76
2021/12/16 05:16:02;;;;;;;43.27;16.90;;;8.40;99.90;;;;;;5092800;28;20274;-76
2021/12/16 05:18:34;;;;;;;45.67;20.20;;;8.40;99.90;;;;;;5093489;28;20219;-77
2021/12/16 05:21:05;;;;;;;48.70;19.20;;;8.40;99.90;;;;;;5093252;28;20195;-76
2021/12/16 05:26:20;;;;;;;36.87;15.83;;;8.40;99.90;;;;;;5092773;28;20305;-76
2021/12/16 05:28:52;;;;;;;51.10;20.67;;;8.50;99.90;;;;;;5093213;28;20191;-76
2021/12/16 05:31:22;;;;;;;63.80;28.67;;;8.50;99.90;;;;;;5092771;28;20295;-75
2021/12/16 05:33:50;;;;;;;167.43;48.97;;;8.50;99.90;;;;;;5092716;28;20249;-76
2021/12/16 05:36:19;;;;;;;178.13;63.07;;;8.50;99.90;;;;;;5092705;28;20652;-76
2021/12/16 05:38:46;;;;;;;105.97;35.97;;;8.50;99.90;;;;;;5092708;28;20253;-75
2021/12/16 05:41:17;;;;;;;125.77;43.27;;;8.50;99.90;;;;;;5092981;28;20250;-76
2021/12/16 05:43:46;;;;;;;74.83;26.17;;;8.50;99.90;;;;;;5092806;28;20192;-75
2021/12/16 05:46:15;;;;;;;63.87;26.13;;;8.50;99.90;;;;;;5091813;28;20184;-76
2021/12/16 05:48:45;;;;;;;66.37;26.47;;;8.50;99.90;;;;;;5092832;28;20241;-75
2021/12/16 05:51:16;;;;;;;81.23;32.57;;;8.50;99.90;;;;;;5092562;28;20221;-77
2021/12/16 05:53:47;;;;;;;70.63;30.70;;;8.50;99.90;;;;;;5092438;28;20180;-76
2021/12/16 05:56:14;;;;;;;58.03;24.80;;;8.50;99.90;;;;;;5092494;28;20184;-77
2021/12/16 05:58:41;;;;;;;51.37;21.73;;;8.40;99.90;;;;;;5092605;28;20195;-76
2021/12/16 06:01:12;;;;;;;86.07;37.53;;;8.40;99.90;;;;;;5092352;28;20652;-77
2021/12/16 06:03:40;;;;;;;68.73;29.47;;;8.50;99.90;;;;;;5092320;28;20195;-77
2021/12/16 06:06:08;;;;;;;48.53;22.27;;;8.40;99.90;;;;;;5093074;28;20191;-77
2021/12/16 06:08:35;;;;;;;49.03;20.67;;;8.50;99.90;;;;;;5091845;28;20265;-76
2021/12/16 06:11:18;;;;;;;37.77;16.93;;;8.50;99.90;;;;;;5092591;28;20200;-77
2021/12/16 06:13:59;;;;;;;55.53;22.47;;;8.50;99.90;;;;;;5092316;28;20187;-77
2021/12/16 06:27:28;;;;;;;33.13;14.07;;;8.40;99.90;;;;;;5091431;28;20187;-77
2021/12/16 06:29:55;;;;;;;25.60;13.03;;;8.40;99.90;;;;;;5092421;28;20208;-77
2021/12/16 06:32:23;;;;;;;28.73;11.30;;;8.30;99.90;;;;;;5092378;28;20191;-76
2021/12/16 06:34:50;;;;;;;27.10;13.00;;;8.30;99.90;;;;;;5092394;28;20202;-77
2021/12/16 06:37:19;;;;;;;24.73;12.10;;;8.30;99.90;;;;;;5092077;28;20645;-77
2021/12/16 06:39:46;;;;;;;29.43;11.37;;;8.30;99.90;;;;;;5092304;28;20230;-77
2021/12/16 06:42:13;;;;;;;29.40;10.93;;;8.30;99.90;;;;;;5091963;28;20648;-78
2021/12/16 06:44:45;;;;;;;24.10;10.07;;;8.30;99.90;;;;;;5092510;28;20286;-77
2021/12/16 06:47:19;;;;;;;24.97;10.93;;;8.30;99.90;;;;;;5091951;28;20176;-77
2021/12/16 06:49:49;;;;;;;20.97;9.27;;;8.30;99.90;;;;;;5091889;28;20641;-77
2021/12/16 06:52:20;;;;;;;21.93;10.00;;;8.30;99.90;;;;;;5092345;28;20188;-77
2021/12/16 06:55:04;;;;;;;18.20;9.03;;;8.30;99.90;;;;;;5092316;28;20180;-77
2021/12/16 06:57:44;;;;;;;23.83;9.63;;;8.30;99.90;;;;;;5095529;28;20610;-77
2021/12/16 07:00:20;;;;;;;17.53;8.77;;;8.30;99.90;;;;;;5095939;28;20648;-76
2021/12/16 07:02:57;;;;;;;19.73;9.07;;;8.30;99.90;;;;;;5096094;28;20175;-76
2021/12/16 07:05:32;;;;;;;18.70;8.23;;;8.30;99.90;;;;;;5095743;28;20184;-77
2021/12/16 07:07:59;;;;;;;19.70;8.90;;;8.30;99.90;;;;;;5095568;28;20266;-77
2021/12/16 07:10:29;;;;;;;18.33;8.07;;;8.30;99.90;;;;;;5095771;28;20675;-77
2021/12/16 07:12:58;;;;;;;25.23;10.90;;;8.20;99.90;;;;;;5095761;28;20275;-77
2021/12/16 07:15:53;;;;;;;31.10;9.07;;;8.30;99.90;;;;;;5095643;28;20283;-77
2021/12/16 07:18:20;;;;;;;22.03;7.93;;;8.30;99.90;;;;;;5095465;28;20274;-77
2021/12/16 07:20:47;;;;;;;28.63;9.37;;;8.30;99.90;;;;;;5095603;28;20199;-77
2021/12/16 07:23:15;;;;;;;21.77;8.40;;;8.30;99.90;;;;;;5095616;28;20278;-77
2021/12/16 07:25:43;;;;;;;21.70;9.60;;;8.20;99.90;;;;;;5095126;28;20203;-76
2021/12/16 07:28:10;;;;;;;25.40;9.07;;;8.20;99.90;;;;;;5095225;28;20592;-77
2021/12/16 07:30:40;;;;;;;23.27;9.37;;;8.20;99.90;;;;;;5095019;28;20254;-77
2021/12/16 07:33:09;;;;;;;21.30;9.33;;;8.20;99.90;;;;;;5095502;28;20205;-76
2021/12/16 07:35:38;;;;;;;28.70;9.27;;;8.20;99.90;;;;;;5094712;28;20195;-77
2021/12/16 07:38:06;;;;;;;26.57;9.03;;;8.30;99.90;;;;;;5094919;28;20205;-77
2021/12/16 07:40:34;;;;;;;22.23;8.93;;;8.30;99.90;;;;;;5094866;28;20595;-77
2021/12/16 07:43:22;;;;;;;27.90;9.47;;;8.30;99.90;;;;;;5095164;28;20188;-77
2021/12/16 07:45:54;;;;;;;20.00;9.10;;;8.30;99.90;;;;;;5095169;28;20184;-77
2021/12/16 07:48:31;;;;;;;20.00;8.40;;;8.30;99.90;;;;;;5094628;28;20187;-77
2021/12/16 07:51:00;;;;;;;40.10;9.53;;;8.30;99.90;;;;;;5094709;28;20668;-77
2021/12/16 07:53:28;;;;;;;44.27;10.73;;;8.20;99.90;;;;;;5094715;28;20199;-77
2021/12/16 07:55:55;;;;;;;20.23;8.93;;;8.30;99.90;;;;;;5091651;28;20202;-77
2021/12/16 07:58:23;;;;;;;16.47;7.70;;;8.30;99.90;;;;;;5090118;28;20198;-76
2021/12/16 08:00:52;;;;;;;20.67;8.27;;;8.30;99.90;;;;;;5074036;28;20214;-77
2021/12/16 08:03:20;;;;;;;18.43;8.30;;;8.30;99.90;;;;;;5074161;28;20200;-77
2021/12/16 08:05:54;;;;;;;29.97;8.40;;;8.30;99.90;;;;;;5074266;28;20192;-77
2021/12/16 08:08:22;;;;;;;15.47;7.40;;;8.30;99.90;;;;;;5074145;28;20188;-77
2021/12/16 08:10:52;;;;;;;28.57;7.93;;;8.30;99.90;;;;;;5086826;28;20208;-77
2021/12/16 08:13:19;;;;;;;21.00;8.00;;;8.30;99.90;;;;;;5094301;28;20191;-77
2021/12/16 08:15:46;;;;;;;19.63;8.53;;;8.30;99.90;;;;;;5094053;28;20188;-76
2021/12/16 08:18:15;;;;;;;18.47;8.43;;;8.30;99.90;;;;;;5073518;28;20192;-76
2021/12/16 08:20:42;;;;;;;22.97;10.13;;;8.30;99.90;;;;;;5074144;28;20206;-78
2021/12/16 08:23:10;;;;;;;23.47;9.83;;;8.40;99.90;;;;;;5074143;28;20192;-77
2021/12/16 08:25:39;;;;;;;26.40;10.67;;;8.40;99.90;;;;;;5073838;28;20251;-77
2021/12/16 08:28:07;;;;;;;31.77;9.87;;;8.40;99.90;;;;;;5073729;28;20605;-78
2021/12/16 08:30:40;;;;;;;37.20;11.77;;;8.40;99.90;;;;;;5073546;28;20209;-77
2021/12/16 08:33:10;;;;;;;31.73;12.90;;;8.50;99.90;;;;;;5082079;28;20545;-75
2021/12/16 08:35:41;;;;;;;27.00;12.10;;;8.50;99.90;;;;;;5089460;28;20191;-77
2021/12/16 08:38:08;;;;;;;35.93;15.17;;;8.50;99.90;;;;;;5075708;28;20718;-76
2021/12/16 08:40:38;;;;;;;41.93;14.47;;;8.50;99.90;;;;;;5073220;28;20188;-76
2021/12/16 08:43:07;;;;;;;24.50;13.57;;;8.50;99.90;;;;;;5091782;28;20620;-77
2021/12/16 08:45:35;;;;;;;31.93;13.03;;;8.60;99.90;;;;;;5093247;28;20602;-76
2021/12/16 08:48:06;;;;;;;30.23;15.00;;;8.50;99.90;;;;;;5090046;28;20826;-77
2021/12/16 08:50:37;;;;;;;20.30;10.13;;;8.50;99.90;;;;;;5093266;28;20183;-76
2021/12/16 08:53:07;;;;;;;24.17;10.13;;;8.60;99.90;;;;;;5090715;28;20191;-76
2021/12/16 08:55:36;;;;;;;23.23;10.60;;;8.50;99.90;;;;;;5085761;28;20188;-76
2021/12/16 08:58:05;;;;;;;25.47;10.87;;;8.50;99.90;;;;;;5075827;28;20565;-76
2021/12/16 09:00:36;;;;;;;30.97;11.47;;;8.50;99.90;;;;;;5083384;28;20734;-77
2021/12/16 09:03:03;;;;;;;19.53;8.13;;;8.50;99.90;;;;;;5077391;28;20531;-77
2021/12/16 09:05:32;;;;;;;33.50;8.47;;;8.50;99.90;;;;;;5093474;28;20241;-77
2021/12/16 09:07:59;;;;;;;27.40;8.63;;;8.50;99.90;;;;;;5092211;28;20199;-76
2021/12/16 09:10:31;;;;;;;19.90;7.95;;;8.60;99.90;;;;;;5093317;28;20241;-77
2021/12/16 09:13:03;;;;;;;20.57;7.33;;;8.60;99.90;;;;;;5093622;28;20216;-76
2021/12/16 09:15:33;;;;;;;23.20;8.77;;;8.60;99.90;;;;;;5093331;28;20184;-76
2021/12/16 09:18:01;;;;;;;29.20;10.17;;;8.60;99.90;;;;;;5074413;28;20653;-77
2021/12/16 09:20:29;;;;;;;19.50;8.33;;;8.60;99.90;;;;;;5072834;28;20196;-76
2021/12/16 09:22:56;;;;;;;21.07;7.93;;;8.60;99.90;;;;;;5073051;28;20254;-78
2021/12/16 09:25:24;;;;;;;40.90;9.23;;;8.60;99.90;;;;;;5072621;28;20196;-77
2021/12/16 09:27:53;;;;;;;29.00;8.50;;;8.60;99.90;;;;;;5072621;28;20238;-78
2021/12/16 09:30:22;;;;;;;23.23;8.57;;;8.60;99.90;;;;;;5072600;28;20193;-78
2021/12/16 09:32:51;;;;;;;41.87;9.40;;;8.60;99.90;;;;;;5081621;28;20693;-78
2021/12/16 09:35:19;;;;;;;24.80;8.00;;;8.60;99.90;;;;;;5093314;28;20200;-77
2021/12/16 09:37:47;;;;;;;28.23;8.40;;;8.60;99.90;;;;;;5093341;28;20196;-77
2021/12/16 09:40:18;;;;;;;38.47;9.53;;;8.60;99.90;;;;;;5092366;28;20250;-78
2021/12/16 09:42:45;;;;;;;35.17;8.90;;;8.70;99.90;;;;;;5092849;28;20197;-78
2021/12/16 09:45:15;;;;;;;53.27;10.57;;;8.80;99.90;;;;;;5092882;28;20192;-77
2021/12/16 09:47:43;;;;;;;17.33;7.33;;;8.80;99.90;;;;;;5093051;28;20201;-78
2021/12/16 09:50:15;;;;;;;51.60;8.90;;;8.80;99.90;;;;;;5092801;28;20319;-77
2021/12/16 09:52:42;;;;;;;34.70;8.97;;;8.90;99.90;;;;;;5092885;28;20204;-78
2021/12/16 09:55:10;;;;;;;41.87;9.93;;;8.90;99.90;;;;;;5092818;28;20598;-77
2021/12/16 09:57:39;;;;;;;40.53;10.47;;;9.00;99.90;;;;;;5092684;28;20200;-77
2021/12/16 10:00:09;;;;;;;26.27;9.43;;;9.00;99.90;;;;;;5091757;28;20667;-78
2021/12/16 10:02:38;;;;;;;48.20;13.77;;;9.00;99.90;;;;;;5092630;28;20195;-78
2021/12/16 10:05:08;;;;;;;37.60;12.45;;;9.00;99.90;;;;;;5092686;28;20223;-77
2021/12/16 10:07:35;;;;;;;;;;;9.00;99.90;;;;;;5092739;28;20184;-78
2021/12/16 10:10:08;;;;;;;43.33;9.80;;;9.00;99.90;;;;;;5092230;28;20782;-78
2021/12/16 10:12:40;;;;;;;131.03;15.20;;;9.10;99.90;;;;;;5092204;28;20678;-78
2021/12/16 10:17:52;;;;;;;102.33;16.03;;;9.30;99.90;;;;;;5092301;28;20194;-78
2021/12/16 10:20:23;;;;;;;177.13;22.60;;;9.40;99.90;;;;;;5092661;28;20172;-78
2021/12/16 10:22:51;;;;;;;19.20;7.80;;;9.40;99.90;;;;;;5092734;28;20592;-77
2021/12/16 10:25:25;;;;;;;82.20;14.83;;;9.50;99.90;;;;;;5092667;28;20643;-78
2021/12/16 10:28:03;;;;;;;51.27;10.17;;;9.60;99.90;;;;;;5092576;28;20304;-79
2021/12/16 10:30:46;;;;;;;30.70;8.37;;;9.60;99.90;;;;;;5091894;28;20181;-78
2021/12/16 10:33:20;;;;;;;28.10;7.83;;;9.60;99.90;;;;;;5095934;28;20186;-79
2021/12/16 10:35:49;;;;;;;21.07;7.13;;;9.60;99.90;;;;;;5096132;28;20185;-78
2021/12/16 10:38:21;;;;;;;46.47;10.93;;;9.70;99.90;;;;;;5096295;28;20603;-78
2021/12/16 10:40:50;;;;;;;33.57;9.70;;;9.70;99.90;;;;;;5096311;28;20186;-77
2021/12/16 10:43:31;;;;;;;43.57;9.17;;;9.60;99.90;;;;;;5096256;28;20198;-77
2021/12/16 10:46:02;;;;;;;55.00;10.40;;;9.40;99.90;;;;;;5095897;28;20211;-77
2021/12/16 10:48:34;;;;;;;42.00;8.43;;;9.50;99.90;;;;;;5095485;28;20643;-78
2021/12/16 10:51:20;;;;;;;45.83;8.33;;;9.50;99.90;;;;;;5093226;28;20189;-78
2021/12/16 10:54:13;;;;;;;11.93;5.33;;;9.60;99.90;;;;;;5095516;28;20276;-76
2021/12/16 10:56:44;;;;;;;32.77;7.83;;;9.70;99.90;;;;;;5095814;28;20562;-76
2021/12/16 10:59:15;;;;;;;63.70;10.47;;;9.70;99.90;;;;;;5095689;28;20244;-80
2021/12/16 11:01:59;;;;;;;80.33;12.47;;;9.80;99.90;;;;;;5095320;28;20187;-78
2021/12/16 11:04:36;;;;;;;14.40;4.63;;;9.80;99.90;;;;;;5096095;28;20182;-77
2021/12/16 11:07:07;;;;;;;21.30;6.57;;;9.70;99.90;;;;;;5096105;28;20190;-76
2021/12/16 11:09:59;;;;;;;42.70;9.23;;;9.70;99.90;;;;;;5095584;28;20582;-80
2021/12/16 11:12:42;;;;;;;49.93;9.40;;;9.70;99.90;;;;;;5095349;28;20685;-79
2021/12/16 11:15:15;;;;;;;15.23;5.53;;;9.80;99.90;;;;;;5095448;28;20181;-79
2021/12/16 11:17:45;;;;;;;18.50;6.17;;;9.90;99.90;;;;;;5095394;28;20185;-79
2021/12/16 11:20:30;;;;;;;33.93;13.43;;;10.00;99.90;;;;;;5095269;28;20532;-77
2021/12/16 11:22:59;;;;;;;44.90;18.03;;;10.10;99.90;;;;;;5095334;28;20194;-76
2021/12/16 11:25:30;;;;;;;50.10;12.07;;;10.00;99.90;;;;;;5095459;28;20254;-79
2021/12/16 11:28:13;;;;;;;21.57;11.07;;;10.00;99.90;;;;;;5095267;28;20303;-78
2021/12/16 11:30:45;;;;;;;11.23;5.83;;;10.00;99.90;;;;;;5094792;28;20250;-76
2021/12/16 11:33:26;;;;;;;14.93;10.20;;;9.90;99.90;;;;;;5095423;28;20205;-77
2021/12/16 11:35:58;;;;;;;24.17;9.87;;;10.00;99.90;;;;;;5095673;28;20184;-76
2021/12/16 11:38:36;;;;;;;22.90;8.33;;;10.00;99.90;;;;;;5095397;28;20197;-77
2021/12/16 11:41:13;;;;;;;19.83;5.83;;;10.10;99.90;;;;;;5095203;28;20186;-75
2021/12/16 11:43:53;;;;;;;7.77;3.90;;;10.20;99.90;;;;;;5095404;28;20259;-76
2021/12/16 11:46:24;;;;;;;9.37;4.10;;;10.10;99.90;;;;;;5095549;28;20182;-77
2021/12/16 11:48:53;;;;;;;9.27;4.53;;;10.10;99.90;;;;;;5095073;28;20187;-77
2021/12/16 11:51:26;;;;;;;16.93;4.17;;;10.00;99.90;;;;;;5095267;28;20226;-78
2021/12/16 11:53:57;;;;;;;8.43;4.00;;;10.00;99.90;;;;;;5094884;28;20180;-78
2021/12/16 11:56:39;;;;;;;9.63;4.13;;;10.00;99.90;;;;;;5095305;28;20189;-78
2021/12/16 11:59:07;;;;;;;12.43;7.20;;;9.90;99.90;;;;;;5094440;28;20181;-79
2021/12/16 12:01:37;;;;;;;12.30;5.20;;;9.80;99.90;;;;;;5074205;28;20535;-76
2021/12/16 12:04:07;;;;;;;12.90;5.10;;;9.70;99.90;;;;;;5074274;28;20186;-76
2021/12/16 12:06:37;;;;;;;25.63;8.27;;;9.60;99.90;;;;;;5074450;28;20205;-76
2021/12/16 12:09:08;;;;;;;10.53;5.63;;;9.40;99.90;;;;;;5086898;28;20253;-77
2021/12/16 12:11:38;;;;;;;11.07;4.87;;;9.30;99.90;;;;;;5086852;28;20677;-75
2021/12/16 12:14:09;;;;;;;13.50;4.53;;;9.20;99.90;;;;;;5087176;28;20197;-77
2021/12/16 12:16:39;;;;;;;8.93;3.63;;;9.10;99.90;;;;;;5094196;28;20214;-76
2021/12/16 12:19:15;;;;;;;18.13;5.23;;;9.10;99.90;;;;;;5094357;28;20198;-77
2021/12/16 12:21:48;;;;;;;9.47;3.60;;;9.10;99.90;;;;;;5094428;28;20249;-77
2021/12/16 12:24:19;;;;;;;8.80;3.27;;;9.00;99.90;;;;;;5094105;28;20706;-76
2021/12/16 12:26:53;;;;;;;7.23;2.80;;;9.10;99.90;;;;;;5094249;28;20186;-77
2021/12/16 12:29:22;;;;;;;8.60;3.20;;;9.10;99.90;;;;;;5094065;28;20263;-76
2021/12/16 12:31:57;;;;;;;7.80;2.73;;;9.10;99.90;;;;;;5094061;28;20622;-77
2021/12/16 12:34:25;;;;;;;6.37;2.90;;;9.00;99.90;;;;;;5094121;28;20634;-76
2021/12/16 12:36:57;;;;;;;8.13;3.40;;;8.90;99.90;;;;;;5094409;28;20298;-77
2021/12/16 12:39:28;;;;;;;9.57;3.60;;;8.80;99.90;;;;;;5094262;28;20187;-78
2021/12/16 12:41:56;;;;;;;5.80;2.80;;;8.80;99.90;;;;;;5094302;28;20184;-76
2021/12/16 12:44:24;;;;;;;7.27;3.17;;;8.70;99.90;;;;;;5094013;28;20672;-78
2021/12/16 12:46:52;;;;;;;8.00;4.30;;;8.70;99.90;;;;;;5094121;28;20195;-77
2021/12/16 12:49:32;;;;;;;7.57;2.43;;;8.70;99.90;;;;;;5093543;28;20601;-76
2021/12/16 12:52:09;;;;;;;14.53;4.20;;;8.70;99.90;;;;;;5093483;28;20204;-76
2021/12/16 12:54:37;;;;;;;6.60;3.33;;;8.70;99.90;;;;;;5092263;28;20566;-76
2021/12/16 12:57:21;;;;;;;7.77;3.67;;;8.70;99.90;;;;;;5093090;28;20192;-78
2021/12/16 12:59:48;;;;;;;6.57;3.33;;;8.60;99.90;;;;;;5080047;28;20702;-77
2021/12/16 13:02:18;;;;;;;7.33;2.93;;;8.60;99.90;;;;;;5078570;28;20257;-76
2021/12/16 13:04:54;;;;;;;10.07;4.13;;;8.60;99.90;;;;;;5082548;28;20189;-78
2021/12/16 13:07:33;;;;;;;8.83;3.63;;;8.60;99.90;;;;;;5079808;28;20183;-77
2021/12/16 13:10:06;;;;;;;12.93;3.90;;;8.50;99.90;;;;;;5093150;28;20310;-76
2021/12/16 13:12:40;;;;;;;9.77;3.40;;;8.50;99.90;;;;;;5092351;28;20212;-77
2021/12/16 13:15:25;;;;;;;11.50;3.27;;;8.50;99.90;;;;;;5093022;28;20185;-77
2021/12/16 13:26:47;;;;;;;9.53;4.20;;;8.30;99.90;;;;;;5054928;28;20213;-77
2021/12/16 13:29:29;;;;;;;14.30;4.03;;;8.20;99.90;;;;;;5078209;28;20183;-78
2021/12/16 13:32:10;;;;;;;12.00;3.33;;;8.20;99.90;;;;;;5093156;28;20231;-76
2021/12/16 13:34:49;;;;;;;9.70;2.93;;;8.10;99.90;;;;;;5092734;28;20192;-78
2021/12/16 13:37:24;;;;;;;15.70;6.70;;;8.10;99.90;;;;;;5091709;28;20187;-76
2021/12/16 13:39:57;;;;;;;12.83;4.20;;;8.00;99.90;;;;;;5082760;28;20678;-78
2021/12/16 13:42:24;;;;;;;18.47;5.37;;;8.00;99.90;;;;;;5076493;28;20188;-76
2021/12/16 13:45:07;;;;;;;12.13;4.60;;;8.00;99.90;;;;;;5079713;28;20197;-76
2021/12/16 13:47:59;;;;;;;8.60;3.43;;;7.90;99.90;;;;;;5070727;28;20197;-76
2021/12/16 14:02:49;;;;;;;18.27;5.10;;;7.60;99.90;;;;;;5080538;28;20203;-77
2021/12/16 14:05:23;;;;;;;17.70;5.20;;;7.60;99.90;;;;;;5073566;28;20667;-78
2021/12/16 14:07:58;;;;;;;21.87;6.33;;;7.50;99.90;;;;;;5069550;28;20552;-78
2021/12/16 14:10:50;;;;;;;13.53;3.77;;;7.50;99.90;;;;;;5071095;28;20673;-78
2021/12/16 14:16:34;;;;;;;15.57;4.93;;;7.30;99.90;;;;;;5053480;28;20666;-78
2021/12/16 14:41:40;;;;;;;18.63;8.23;;;6.60;99.90;;;;;;5091695;28;20203;-78
2021/12/16 14:45:10;;;;;;;20.13;5.67;;;6.60;99.90;;;;;;5082983;28;20185;-78
2021/12/16 14:47:27;;;;;;;14.37;4.93;;;6.50;99.90;;;;;;5076826;28;20197;-77
2021/12/16 14:49:55;;;;;;;10.33;4.67;;;6.40;99.90;;;;;;5092073;28;20245;-78
2021/12/16 14:52:25;;;;;;;12.57;4.90;;;6.30;99.90;;;;;;5083260;28;20692;-78
2021/12/16 14:54:56;;;;;;;11.07;4.13;;;6.20;99.90;;;;;;5071460;28;20192;-78
2021/12/16 14:57:26;;;;;;;8.73;4.20;;;6.20;99.90;;;;;;5071700;28;20193;-78
2021/12/16 14:59:54;;;;;;;10.67;4.63;;;6.10;99.90;;;;;;5071638;28;20189;-78
2021/12/16 15:02:29;;;;;;;16.37;5.30;;;6.00;99.90;;;;;;5083024;28;20197;-78
2021/12/16 15:04:56;;;;;;;15.93;4.53;;;6.00;99.90;;;;;;5092091;28;20179;-78
2021/12/16 15:07:26;;;;;;;18.00;4.30;;;5.90;99.90;;;;;;5091440;28;20274;-78
2021/12/16 15:09:55;;;;;;;11.00;3.67;;;5.90;99.90;;;;;;5091198;28;20226;-78
2021/12/16 15:12:32;;;;;;;11.30;3.37;;;5.80;99.90;;;;;;5091948;28;20187;-78
2021/12/16 15:15:11;;;;;;;16.17;4.40;;;5.70;99.90;;;;;;5092112;28;20658;-78
2021/12/16 15:37:41;;;;;;;11.23;3.50;;;5.30;99.90;;;;;;5086617;28;20187;-78
2021/12/16 15:40:27;;;;;;;13.37;4.20;;;5.30;99.90;;;;;;5095381;28;20183;-78
2021/12/16 15:42:56;;;;;;;13.63;5.00;;;5.20;99.90;;;;;;5095592;28;20215;-78
2021/12/16 15:45:26;;;;;;;14.10;4.10;;;5.20;99.90;;;;;;5094596;28;20192;-78
2021/12/16 15:47:55;;;;;;;11.00;3.27;;;5.20;99.90;;;;;;5094483;28;20187;-78
2021/12/16 15:50:28;;;;;;;15.93;3.80;;;5.20;99.90;;;;;;5094855;28;20194;-78
2021/12/16 15:52:57;;;;;;;16.40;4.37;;;5.30;99.90;;;;;;5083068;28;20208;-77
2021/12/16 15:55:31;;;;;;;13.33;4.00;;;5.20;99.90;;;;;;5078274;28;20237;-77
2021/12/16 15:58:10;;;;;;;16.10;5.63;;;5.20;99.90;;;;;;5094339;28;20240;-78
2021/12/16 16:00:41;;;;;;;17.80;5.53;;;5.20;99.90;;;;;;5094316;28;20183;-79
2021/12/16 16:03:09;;;;;;;17.83;7.00;;;5.20;99.90;;;;;;5085526;28;20607;-79
2021/12/16 16:05:43;;;;;;;15.63;5.43;;;5.20;99.90;;;;;;5079388;28;20196;-79
2021/12/16 16:08:12;;;;;;;17.60;5.17;;;5.20;99.90;;;;;;5089853;28;20189;-79
2021/12/16 16:10:43;;;;;;;20.27;7.33;;;5.20;99.90;;;;;;5077529;28;20679;-80
2021/12/16 16:13:14;;;;;;;21.47;8.03;;;5.20;99.90;;;;;;5093189;28;20203;-79